Time;durP1;ratioP1;P1;durP2;ratioP2;P2;SDS_P1;SDS_P2;PMS_P1;PMS_P2;Temp;Humidity;BMP_temperature;BMP_pressure;BME280_temperature;BME280_humidity;BME280_pressure;Samples;Min_cycle;Max_cycle;Signal;HPM_P1;HPM_P2
2024/01/18 00:02:08;;;;;;;;;25.00;22.00;;;;;6.14;100.00;98348.47;4865304;29;45409;-83
2024/01/18 00:04:33;;;;;;;;;29.00;25.33;;;;;6.26;100.00;98347.53;4865070;29;46939;-82
2024/01/18 00:06:59;;;;;;;;;26.33;20.00;;;;;6.32;100.00;98344.84;4865722;29;44916;-82
2024/01/18 00:09:24;;;;;;;;;18.33;18.00;;;;;6.40;100.00;98354.47;4867444;29;44864;-82
2024/01/18 00:11:50;;;;;;;;;22.00;18.67;;;;;6.33;100.00;98357.16;4881615;29;44905;-82
2024/01/18 00:14:22;;;;;;;;;32.00;26.00;;;;;6.61;100.00;98363.09;4881883;29;47030;-81
2024/01/18 00:16:47;;;;;;;;;26.00;19.00;;;;;6.27;100.00;98378.31;4864669;29;45319;-82
2024/01/18 00:19:13;;;;;;;;;20.33;17.67;;;;;6.32;100.00;98379.16;4867951;29;44976;-82
2024/01/18 00:21:38;;;;;;;;;17.33;15.33;;;;;6.43;100.00;98372.03;4884434;29;45101;-82
2024/01/18 00:24:05;;;;;;;;;19.67;16.00;;;;;6.44;100.00;98365.84;4885382;29;45256;-82
2024/01/18 00:26:31;;;;;;;;;16.67;16.67;;;;;6.40;100.00;98369.41;4899929;29;44720;-81
2024/01/18 00:28:57;;;;;;;;;21.67;19.00;;;;;6.43;100.00;98366.75;4886711;29;44855;-82
2024/01/18 00:31:22;;;;;;;;;21.33;21.33;;;;;6.47;100.00;98363.22;4885186;29;44980;-81
2024/01/18 00:33:48;;;;;;;;;18.33;18.00;;;;;6.43;100.00;98356.19;4885483;29;45192;-82
2024/01/18 00:36:13;;;;;;;;;22.67;21.33;;;;;6.38;100.00;98350.97;4899511;29;45018;-82
2024/01/18 00:38:39;;;;;;;;;23.33;21.67;;;;;6.29;100.00;98350.16;4883142;29;44819;-82
2024/01/18 00:41:04;;;;;;;;;15.67;15.00;;;;;6.36;100.00;98352.75;4898488;29;44950;-82
2024/01/18 00:43:30;;;;;;;;;13.33;13.33;;;;;6.41;100.00;98368.53;4887851;29;45568;-82
2024/01/18 00:45:55;;;;;;;;;20.00;17.67;;;;;6.40;100.00;98372.94;4887246;29;44858;-83
2024/01/18 00:48:20;;;;;;;;;17.33;17.33;;;;;6.40;100.00;98375.59;4887871;29;44894;-82
2024/01/18 00:54:08;;;;;;;;;15.33;14.33;;;;;6.45;100.00;98367.63;4887635;29;44845;-82
2024/01/18 00:56:34;;;;;;;;;17.33;14.67;;;;;6.48;100.00;98374.66;4900140;28;45161;-82
2024/01/18 00:58:59;;;;;;;;;14.67;14.00;;;;;6.50;100.00;98379.00;4907394;28;44960;-82
2024/01/18 01:01:24;;;;;;;;;14.00;12.00;;;;;6.44;100.00;98373.78;4906437;28;45252;-82
2024/01/18 01:03:50;;;;;;;;;17.67;14.00;;;;;6.34;100.00;98366.81;4903364;29;47358;-82
2024/01/18 01:06:17;;;;;;;;;14.67;12.67;;;;;6.44;100.00;98362.34;4905720;28;44890;-82
2024/01/18 01:08:42;;;;;;;;;13.33;12.00;;;;;6.16;100.00;98374.00;4905552;28;44821;-82
2024/01/18 01:11:08;;;;;;;;;20.67;18.67;;;;;6.17;100.00;98365.19;4904735;29;44970;-82
2024/01/18 01:13:34;;;;;;;;;16.33;14.33;;;;;6.21;100.00;98369.53;4890173;29;45376;-82
2024/01/18 01:15:59;;;;;;;;;22.33;18.67;;;;;6.17;100.00;98359.91;4905343;28;45217;-82
2024/01/18 01:18:25;;;;;;;;;15.67;12.67;;;;;6.16;100.00;98354.63;4906470;28;45246;-82
2024/01/18 01:20:50;;;;;;;;;15.67;14.67;;;;;5.99;100.00;98352.09;4905186;28;44850;-82
2024/01/18 01:23:16;;;;;;;;;14.00;14.00;;;;;6.02;100.00;98365.28;4905249;29;46903;-81
2024/01/18 01:25:41;;;;;;;;;14.00;12.67;;;;;6.03;100.00;98358.25;4906199;28;44866;-82
2024/01/18 01:28:06;;;;;;;;;9.00;9.00;;;;;6.05;100.00;98354.69;4906595;28;46728;-82
2024/01/18 01:30:32;;;;;;;;;19.00;15.00;;;;;6.04;100.00;98368.78;4905725;28;45222;-82
2024/01/18 01:32:58;;;;;;;;;20.67;18.00;;;;;5.97;100.00;98374.97;4904886;28;47156;-82
2024/01/18 01:35:23;;;;;;;;;18.33;16.67;;;;;5.97;100.00;98374.97;4904348;29;44876;-82
2024/01/18 01:37:48;;;;;;;;;21.67;15.67;;;;;5.98;100.00;98379.38;4905406;29;44872;-82
2024/01/18 01:40:14;;;;;;;;;17.67;14.00;;;;;5.90;100.00;98381.13;4901352;28;44793;-82
2024/01/18 01:42:39;;;;;;;;;19.67;18.00;;;;;5.80;100.00;98375.91;4904895;29;47142;-81
2024/01/18 01:45:06;;;;;;;;;18.67;18.67;;;;;5.90;100.00;98375.84;4905142;29;45085;-82
2024/01/18 01:47:31;;;;;;;;;22.67;21.00;;;;;5.87;100.00;98386.44;4906066;29;44892;-81
2024/01/18 01:49:57;;;;;;;;;23.33;23.33;;;;;5.88;100.00;98396.09;4907525;28;44897;-81
2024/01/18 01:52:24;;;;;;;;;21.00;21.00;;;;;5.97;100.00;98396.97;4905423;29;46996;-82
2024/01/18 01:54:50;;;;;;;;;23.33;18.00;;;;;5.92;100.00;98401.38;4905020;29;44887;-82
2024/01/18 01:57:18;;;;;;;;;18.00;16.33;;;;;6.01;100.00;98396.06;4902059;29;45036;-83
2024/01/18 01:59:43;;;;;;;;;21.67;19.33;;;;;5.92;100.00;98397.84;4887325;29;44925;-83
2024/01/18 02:02:11;;;;;;;;;18.33;15.33;;;;;5.97;100.00;98390.81;4885956;29;45562;-83
2024/01/18 02:04:37;;;;;;;;;20.33;16.33;;;;;5.87;100.00;98403.13;4887853;29;45258;-83
2024/01/18 02:07:03;;;;;;;;;16.33;16.33;;;;;5.80;100.00;98398.78;4888104;29;44749;-83
2024/01/18 02:09:29;;;;;;;;;22.00;22.00;;;;;5.82;100.00;98410.22;4888509;29;45162;-81
2024/01/18 02:11:54;;;;;;;;;30.33;24.67;;;;;5.86;100.00;98405.78;4886738;29;47073;-83
2024/01/18 02:14:19;;;;;;;;;23.33;21.67;;;;;5.84;100.00;98404.91;4887960;29;45192;-83
2024/01/18 02:16:45;;;;;;;;;18.00;18.00;;;;;5.84;100.00;98402.25;4888245;29;45187;-83
2024/01/18 02:19:10;;;;;;;;;20.67;18.33;;;;;5.84;100.00;98402.25;5091941;23;46751;-82
2024/01/18 02:21:37;;;;;;;;;27.00;25.00;;;;;5.93;100.00;98410.16;4943774;23;46222;-82
2024/01/18 02:24:30;;;;;;;;;20.33;20.33;;;;;6.02;100.00;98410.16;4906528;28;44806;-82
2024/01/18 02:26:57;;;;;;;;;25.33;25.00;;;;;5.63;100.00;98412.03;4905140;29;44894;-82
2024/01/18 02:29:22;;;;;;;;;25.33;24.00;;;;;5.63;100.00;98422.56;4905210;29;44864;-81
2024/01/18 02:31:49;;;;;;;;;28.00;24.67;;;;;5.70;100.00;98416.41;4907001;28;45185;-81
2024/01/18 02:34:16;;;;;;;;;20.67;18.00;;;;;5.55;100.00;98421.72;4905910;29;45375;-81
2024/01/18 02:36:43;;;;;;;;;20.00;20.00;;;;;5.50;100.00;98428.78;4907071;28;44900;-81
2024/01/18 02:39:16;;;;;;;;;26.00;25.67;;;;;5.48;100.00;98430.53;5301249;23;46581;-82
2024/01/18 02:41:41;;;;;;;;;20.33;19.00;;;;;5.48;100.00;98439.31;4906488;28;45205;-81
2024/01/18 02:49:17;;;;;;;;;21.33;21.33;;;;;5.46;100.00;98442.84;4958130;23;45062;-82
2024/01/18 02:54:14;;;;;;;;;27.00;21.00;;;;;5.39;100.00;98441.97;4904211;28;44794;-81
2024/01/18 02:56:40;;;;;;;;;24.67;21.33;;;;;5.47;100.00;98426.13;4889034;28;45268;-81
2024/01/18 02:59:05;;;;;;;;;16.00;14.33;;;;;5.20;100.00;98426.19;4890300;28;44903;-81
2024/01/18 03:01:31;;;;;;;;;20.33;19.67;;;;;5.30;100.00;98436.72;4905905;28;45584;-82
2024/01/18 03:06:31;;;;;;;;;18.33;15.67;;;;;5.26;100.00;98445.53;4817315;23;46072;-81
2024/01/18 03:09:03;;;;;;;;;25.00;19.33;;;;;5.65;100.00;98454.22;4905522;28;44933;-82
2024/01/18 03:11:32;;;;;;;;;20.33;20.00;;;;;5.65;100.00;98465.63;4904160;28;47225;-82
2024/01/18 03:13:57;;;;;;;;;10.67;10.67;;;;;5.40;100.00;98484.16;4906572;28;44886;-81
2024/01/18 03:16:23;;;;;;;;;18.00;15.67;;;;;5.45;100.00;98478.00;4917877;23;44837;-82
2024/01/18 03:18:48;;;;;;;;;19.33;18.67;;;;;5.40;100.00;98470.09;4862774;29;45026;-82
2024/01/18 03:21:15;;;;;;;;;24.00;17.33;;;;;5.38;100.00;98472.72;4829847;29;47082;-82
2024/01/18 03:23:41;;;;;;;;;19.33;18.00;;;;;5.28;100.00;98472.75;4830812;29;44931;-82
2024/01/18 03:26:07;;;;;;;;;17.33;15.67;;;;;5.33;100.00;98482.41;4844982;29;44781;-82
2024/01/18 03:28:32;;;;;;;;;18.67;14.33;;;;;5.35;100.00;98492.94;4829047;29;45069;-82
2024/01/18 03:30:58;;;;;;;;;13.00;13.00;;;;;5.28;100.00;98486.81;4829793;29;45150;-82
2024/01/18 03:33:23;;;;;;;;;17.00;12.33;;;;;5.29;100.00;98487.66;4828875;29;44901;-82
2024/01/18 03:35:48;;;;;;;;;20.67;17.00;;;;;5.30;100.00;98500.84;4843599;29;45682;-81
2024/01/18 03:38:15;;;;;;;;;13.33;11.33;;;;;5.68;100.00;98506.97;4828696;29;45012;-82
2024/01/18 03:40:40;;;;;;;;;11.33;11.33;;;;;5.53;100.00;98508.72;4830068;29;45350;-82
2024/01/18 03:43:06;;;;;;;;;12.33;11.00;;;;;5.65;100.00;98513.09;4844785;29;44895;-82
2024/01/18 03:45:32;;;;;;;;;14.33;14.33;;;;;7.37;100.00;98509.56;4829961;29;44690;-82
2024/01/18 03:47:57;;;;;;;;;17.67;14.00;;;;;5.72;100.00;98517.50;4842915;29;44888;-82
2024/01/18 03:50:22;;;;;;;;;13.67;13.67;;;;;5.64;100.00;98527.19;4828719;29;55787;-81
2024/01/18 03:52:48;;;;;;;;;10.33;10.33;;;;;5.66;100.00;98537.72;4844469;29;44859;-81
2024/01/18 03:55:13;;;;;;;;;14.33;14.33;;;;;5.62;100.00;98534.22;4829521;29;44776;-82
2024/01/18 03:57:39;;;;;;;;;11.00;11.00;;;;;5.59;100.00;98536.84;4843330;29;44884;-82
2024/01/18 04:00:05;;;;;;;;;9.67;8.00;;;;;5.59;100.00;98542.13;4843546;29;47257;-81
2024/01/18 04:02:31;;;;;;;;;14.33;14.33;;;;;5.52;100.00;98545.66;4828466;29;44754;-82
2024/01/18 04:04:56;;;;;;;;;16.67;14.00;;;;;5.49;100.00;98551.78;4829499;29;45139;-82
2024/01/18 04:07:22;;;;;;;;;14.00;11.33;;;;;5.55;100.00;98564.09;4827468;29;44889;-82
2024/01/18 04:09:47;;;;;;;;;7.67;5.00;;;;;5.48;100.00;98557.09;4830135;29;45070;-82
2024/01/18 04:12:13;;;;;;;;;15.00;13.67;;;;;5.49;100.00;98553.56;4830047;29;44928;-82
2024/01/18 04:14:43;;;;;;;;;16.67;15.67;;;;;5.47;100.00;98568.50;4844083;29;44857;-82
2024/01/18 04:17:10;;;;;;;;;14.00;14.00;;;;;5.41;100.00;98562.34;4843627;29;44811;-83
2024/01/18 04:19:35;;;;;;;;;15.00;13.67;;;;;5.35;100.00;98582.53;4833676;29;47213;-82
2024/01/18 04:22:01;;;;;;;;;19.33;15.00;;;;;6.55;100.00;98575.28;4848391;29;57062;-82
2024/01/18 04:24:26;;;;;;;;;20.67;18.67;;;;;8.85;87.60;98558.19;4835008;29;44853;-82
2024/01/18 04:26:52;;;;;;;;;18.33;16.33;;;;;8.71;100.00;98602.56;4856090;29;45217;-82
2024/01/18 04:29:17;;;;;;;;;18.33;14.67;;;;;8.61;89.65;98570.88;4870356;29;45582;-82
2024/01/18 04:31:44;;;;;;;;;19.33;17.00;;;;;8.82;86.47;98584.72;4870922;29;45123;-82
2024/01/18 04:34:09;;;;;;;;;11.67;10.33;;;;;8.45;86.80;98595.78;4870477;29;44892;-82
2024/01/18 04:36:34;;;;;;;;;14.00;12.67;;;;;8.32;85.43;98604.72;4870085;29;44851;-82
2024/01/18 04:39:47;;;;;;;;;20.00;18.67;;;;;7.51;100.00;98630.19;4869268;29;47470;-82
2024/01/18 04:42:12;;;;;;;;;19.33;15.33;;;;;4.60;100.00;98647.38;4869296;29;44941;-82
2024/01/18 04:44:39;;;;;;;;;15.33;13.00;;;;;4.07;100.00;98668.13;4870007;29;44825;-82
2024/01/18 04:47:06;;;;;;;;;15.00;12.33;;;;;3.83;100.00;98669.72;4869110;29;44889;-81
2024/01/18 04:49:32;;;;;;;;;14.33;12.33;;;;;3.71;100.00;98670.47;4868397;29;46966;-81
2024/01/18 04:51:57;;;;;;;;;15.00;14.33;;;;;3.66;100.00;98682.72;4869476;29;44751;-82
2024/01/18 04:54:22;;;;;;;;;13.67;13.67;;;;;3.62;100.00;98690.59;4869359;29;45211;-82
2024/01/18 04:56:48;;;;;;;;;11.00;11.00;;;;;3.54;100.00;98698.41;4869343;29;44959;-82
2024/01/18 04:59:13;;;;;;;;;20.00;18.00;;;;;3.52;100.00;98697.50;4868857;29;45094;-81
2024/01/18 05:01:40;;;;;;;;;21.33;17.67;;;;;3.47;100.00;98707.06;4868985;29;44931;-82
2024/01/18 05:04:14;;;;;;;;;12.33;12.00;;;;;3.40;100.00;98700.88;4883073;29;44834;-82
2024/01/18 05:06:40;;;;;;;;;23.67;22.00;;;;;3.55;100.00;98723.78;4870669;29;44884;-82
2024/01/18 05:09:05;;;;;;;;;18.67;16.67;;;;;3.54;100.00;98725.53;4885086;29;47800;-82
2024/01/18 05:11:31;;;;;;;;;21.67;18.00;;;;;3.66;100.00;98726.53;4871035;29;44828;-82
2024/01/18 05:13:57;;;;;;;;;21.67;17.33;;;;;3.58;100.00;98745.75;4871233;29;45251;-82
2024/01/18 05:16:32;;;;;;;;;17.00;16.00;;;;;3.57;100.00;98741.31;4867764;29;44878;-81
2024/01/18 05:19:04;;;;;;;;;22.00;22.00;;;;;3.90;100.00;98739.00;4943736;23;45349;-81
2024/01/18 05:21:29;;;;;;;;;24.67;21.67;;;;;3.57;100.00;98754.47;4907684;28;46014;-81
2024/01/18 05:23:55;;;;;;;;;25.67;21.00;;;;;3.52;100.00;98752.69;4908156;28;44809;-81
2024/01/18 05:26:20;;;;;;;;;28.67;24.33;;;;;3.57;100.00;98766.75;4908494;28;45052;-81
2024/01/18 05:31:21;;;;;;;;;28.00;23.67;;;;;3.39;100.00;98772.69;5167020;23;45194;-81
2024/01/18 05:33:47;;;;;;;;;24.00;24.00;;;;;3.62;100.00;98785.22;4905675;28;45180;-81
2024/01/18 05:36:12;;;;;;;;;24.67;23.33;;;;;3.64;100.00;98767.69;4906749;28;45068;-81
2024/01/18 05:38:37;;;;;;;;;26.00;25.33;;;;;3.61;100.00;98784.31;4905679;29;47482;-81
2024/01/18 05:41:03;;;;;;;;;31.67;27.67;;;;;4.66;100.00;98793.06;4895057;28;44929;-81
2024/01/18 05:43:28;;;;;;;;;25.00;19.67;;;;;3.58;100.00;98785.16;4887358;29;44823;-81
2024/01/18 05:45:54;;;;;;;;;32.67;30.67;;;;;3.55;100.00;98821.91;4871621;29;44827;-81
2024/01/18 05:51:01;;;;;;;;;31.33;21.33;;;;;3.53;100.00;98830.66;5112233;23;8156299;-82
2024/01/18 05:53:33;;;;;;;;;29.33;28.00;;;;;3.69;100.00;98822.06;4907815;28;45219;-82
2024/01/18 05:55:59;;;;;;;;;28.67;27.33;;;;;3.56;100.00;98830.69;5395028;23;46695;-82
2024/01/18 05:58:26;;;;;;;;;30.33;29.33;;;;;3.60;100.00;98821.97;4995220;23;46318;-82
2024/01/18 06:00:52;;;;;;;;;41.33;31.33;;;;;3.61;100.00;98839.50;4906015;28;45223;-82
2024/01/18 06:03:17;;;;;;;;;32.00;30.33;;;;;3.60;100.00;98845.63;4907507;28;44824;-82
2024/01/18 06:05:42;;;;;;;;;36.00;31.00;;;;;3.58;100.00;98847.38;4906462;28;44865;-82
2024/01/18 06:08:08;;;;;;;;;32.33;29.33;;;;;3.65;100.00;98853.56;4906640;29;46931;-83
2024/01/18 06:10:33;;;;;;;;;25.00;23.33;;;;;3.68;100.00;98859.75;4907565;28;44873;-83
2024/01/18 06:13:05;;;;;;;;;37.33;30.33;;;;;3.89;100.00;98866.97;4906238;29;44963;-82
2024/01/18 06:15:31;;;;;;;;;33.67;25.33;;;;;3.67;100.00;98876.38;4907388;28;51737;-82
2024/01/18 06:18:03;;;;;;;;;32.00;29.00;;;;;3.71;100.00;98875.53;4906228;28;47025;-81
2024/01/18 06:20:28;;;;;;;;;29.00;25.33;;;;;3.75;100.00;98893.13;4887341;29;45071;-83
2024/01/18 06:22:54;;;;;;;;;30.00;25.67;;;;;3.86;100.00;98906.41;4888400;23;45210;-81
2024/01/18 06:25:20;;;;;;;;;27.33;24.00;;;;;3.83;100.00;98908.09;4888101;29;44954;-81
2024/01/18 06:27:46;;;;;;;;;37.67;30.33;;;;;3.80;100.00;98901.94;4887972;29;46931;-81
2024/01/18 06:30:13;;;;;;;;;28.33;27.00;;;;;3.83;100.00;98922.13;4888040;29;44873;-81
2024/01/18 06:32:38;;;;;;;;;24.33;22.33;;;;;3.83;100.00;98937.03;4888040;29;44844;-81
2024/01/18 06:35:04;;;;;;;;;24.00;24.00;;;;;3.86;100.00;98937.97;4887946;29;44877;-81
2024/01/18 06:37:29;;;;;;;;;28.00;27.00;;;;;3.83;100.00;98944.94;4887760;29;46888;-81
2024/01/18 06:39:55;;;;;;;;;29.33;28.33;;;;;3.87;100.00;98950.22;4886776;29;44826;-81
2024/01/18 06:42:20;;;;;;;;;29.67;29.33;;;;;3.90;100.00;98960.81;4902955;28;44922;-82
2024/01/18 06:44:46;;;;;;;;;35.33;31.00;;;;;3.95;100.00;98981.88;4888282;29;44866;-81
2024/01/18 06:47:11;;;;;;;;;33.33;28.67;;;;;3.90;100.00;98975.66;4887816;29;45051;-83
2024/01/18 06:49:36;;;;;;;;;43.33;37.67;;;;;3.90;100.00;99005.50;4901808;28;44865;-82
2024/01/18 06:52:02;;;;;;;;;31.67;29.67;;;;;3.81;100.00;99002.75;4887819;29;44900;-82
2024/01/18 06:54:27;;;;;;;;;41.67;35.00;;;;;3.86;100.00;99027.38;4888434;29;44855;-82
2024/01/18 06:56:53;;;;;;;;;39.33;38.00;;;;;3.76;100.00;99017.59;4886559;29;47047;-82
2024/01/18 06:59:18;;;;;;;;;40.33;36.67;;;;;3.69;100.00;99018.34;4901832;28;44933;-82
2024/01/18 07:09:32;;;;;;;;;45.50;42.00;;;;;3.72;100.00;99040.31;5441463;23;46954;-80
2024/01/18 07:11:59;;;;;;;;;42.67;39.33;;;;;3.71;100.00;99041.16;4920163;23;45770;-82
2024/01/18 07:14:27;;;;;;;;;37.50;36.00;;;;;3.71;100.00;99038.53;5121748;23;45118;-82
2024/01/18 07:16:53;;;;;;;;;29.25;21.50;;;;;3.62;100.00;99042.81;4919173;28;47495;-82
2024/01/18 07:19:18;;;;;;;;;48.00;41.25;;;;;3.59;100.00;99069.91;4888981;28;45635;-82
2024/01/18 07:21:44;;;;;;;;;53.25;43.00;;;;;3.55;100.00;99084.75;4845061;29;44858;-83
2024/01/18 07:24:09;;;;;;;;;47.00;38.67;;;;;3.57;100.00;99090.91;4846480;29;45480;-82
2024/01/18 07:27:18;;;;;;;;;49.25;40.00;;;;;3.75;100.00;99107.84;4849734;29;45296;-82
2024/01/18 07:29:44;;;;;;;;;43.00;41.25;;;;;3.44;100.00;99109.13;4857104;29;44803;-81
2024/01/18 07:32:10;;;;;;;;;62.00;45.00;;;;;3.42;100.00;99113.47;4865438;29;44832;-82
2024/01/18 07:34:36;;;;;;;;;40.00;38.25;;;;;3.38;100.00;99123.91;4867159;29;44826;-81
2024/01/18 07:37:03;;;;;;;;;48.75;39.25;;;;;3.32;100.00;99122.94;4875172;29;46923;-81
2024/01/18 07:39:28;;;;;;;;;35.00;35.00;;;;;3.28;100.00;99124.63;4880352;29;44894;-81
2024/01/18 07:41:54;;;;;;;;;47.25;39.25;;;;;3.25;100.00;99137.69;4882817;29;44924;-81
2024/01/18 07:44:23;;;;;;;;;35.00;32.00;;;;;3.30;100.00;99141.28;4867734;29;45150;-81
2024/01/18 07:46:49;;;;;;;;;50.00;43.50;;;;;3.24;100.00;99141.19;4867084;29;47034;-81
2024/01/18 07:49:15;;;;;;;;;46.75;43.50;;;;;3.44;100.00;99164.31;4868847;29;45085;-82
2024/01/18 07:51:41;;;;;;;;;55.25;47.00;;;;;3.34;100.00;99169.38;4865415;29;44836;-83
2024/01/18 07:54:06;;;;;;;;;45.75;42.75;;;;;3.33;100.00;99172.88;4865563;29;44934;-83
2024/01/18 07:56:45;;;;;;;;;49.25;41.25;;;;;3.54;100.00;99182.88;4866660;29;45236;-82
2024/01/18 07:59:11;;;;;;;;;51.25;44.50;;;;;3.38;100.00;99188.72;4863461;29;44929;-82
2024/01/18 08:01:36;;;;;;;;;52.67;44.00;;;;;3.32;100.00;99181.63;4865275;29;44967;-82
2024/01/18 08:04:02;;;;;;;;;58.00;50.25;;;;;3.37;100.00;99195.72;4882541;29;44900;-84
2024/01/18 08:06:27;;;;;;;;;48.75;43.25;;;;;3.36;100.00;99200.94;4846375;29;46659;-85
2024/01/18 08:08:54;;;;;;;;;39.25;33.50;;;;;3.38;100.00;99205.38;4848037;29;45389;-84
2024/01/18 08:11:19;;;;;;;;;52.00;45.75;;;;;3.40;100.00;99222.03;4849583;29;45407;-84
2024/01/18 08:13:46;;;;;;;;;47.00;42.75;;;;;3.42;100.00;99221.22;4849360;29;45498;-83
2024/01/18 08:16:11;;;;;;;;;50.50;46.00;;;;;3.38;100.00;99229.03;4846699;29;45312;-84
2024/01/18 08:18:36;;;;;;;;;58.75;48.00;;;;;3.43;100.00;99238.72;4847619;29;45520;-82
2024/01/18 08:21:03;;;;;;;;;62.25;46.25;;;;;3.44;100.00;99243.16;4859688;29;45536;-84
2024/01/18 08:23:28;;;;;;;;;50.75;46.75;;;;;3.36;100.00;99251.75;4848904;29;45614;-86
2024/01/18 08:25:54;;;;;;;;;55.00;46.50;;;;;3.31;100.00;99258.69;4850096;29;46575;-86
2024/01/18 08:28:21;;;;;;;;;60.25;50.25;;;;;3.38;100.00;99265.81;4851365;29;45413;-85
2024/01/18 08:30:50;;;;;;;;;57.50;46.50;;;;;3.46;100.00;99273.84;4845454;29;45624;-86
2024/01/18 08:33:16;;;;;;;;;60.50;48.25;;;;;3.31;100.00;99269.19;4845184;29;45482;-84
2024/01/18 08:35:41;;;;;;;;;54.75;46.00;;;;;3.30;100.00;99272.66;4846788;29;46851;-84
2024/01/18 08:38:07;;;;;;;;;62.00;51.00;;;;;3.49;100.00;99305.44;4855114;29;45894;-85
2024/01/18 08:40:34;;;;;;;;;51.75;45.25;;;;;3.39;100.00;99312.28;4834473;29;45494;-85
2024/01/18 08:42:59;;;;;;;;;59.00;52.00;;;;;3.47;100.00;99328.16;4855024;29;45240;-86
2024/01/18 08:45:26;;;;;;;;;64.50;53.50;;;;;3.54;100.00;99327.44;4848103;29;47267;-84
2024/01/18 08:47:54;;;;;;;;;65.00;54.50;;;;;3.63;100.00;99341.63;4840199;29;45800;-86
2024/01/18 08:50:20;;;;;;;;;63.75;52.25;;;;;3.60;100.00;99342.47;4849034;29;45546;-84
2024/01/18 08:52:46;;;;;;;;;63.75;50.50;;;;;3.52;100.00;99329.16;4865829;29;45544;-84
2024/01/18 08:55:11;;;;;;;;;63.00;52.25;;;;;3.55;100.00;99354.59;4865580;29;48113;-81
2024/01/18 08:57:38;;;;;;;;;66.75;53.75;;;;;3.63;100.00;99370.53;4865099;29;45401;-84
2024/01/18 09:00:04;;;;;;;;;59.75;51.00;;;;;3.56;100.00;99366.91;4846026;29;45416;-83
2024/01/18 09:02:30;;;;;;;;;68.50;55.25;;;;;3.59;100.00;99374.84;4847395;29;45369;-83
2024/01/18 09:04:59;;;;;;;;;68.75;54.75;;;;;3.56;100.00;99380.06;4850719;29;46698;-84
2024/01/18 09:07:34;;;;;;;;;72.25;56.50;;;;;3.66;100.00;99382.00;4854098;29;45453;-83
2024/01/18 09:10:01;;;;;;;;;69.50;58.25;;;;;3.57;100.00;99403.72;4861811;29;45335;-82
2024/01/18 09:12:26;;;;;;;;;68.25;52.75;;;;;3.52;100.00;99425.53;4850122;29;45413;-83
2024/01/18 09:14:56;;;;;;;;;72.25;55.25;;;;;3.53;100.00;99428.16;4851970;29;45390;-84
2024/01/18 09:17:29;;;;;;;;;66.00;54.75;;;;;3.65;100.00;99437.19;4851252;29;44765;-81
2024/01/18 09:19:56;;;;;;;;;72.00;56.50;;;;;3.43;100.00;99415.69;4858062;29;45082;-80
2024/01/18 09:22:22;;;;;;;;;69.00;56.25;;;;;3.64;100.00;99424.91;4867141;29;45487;-80
2024/01/18 09:24:49;;;;;;;;;63.25;52.75;;;;;3.84;100.00;99451.56;4857297;29;46997;-84
2024/01/18 09:27:15;;;;;;;;;70.00;56.50;;;;;3.74;100.00;99416.34;4854524;29;45383;-84
2024/01/18 09:29:43;;;;;;;;;70.00;57.25;;;;;4.28;100.00;99456.81;4854493;29;45473;-84
2024/01/18 09:32:20;;;;;;;;;70.50;54.75;;;;;4.24;100.00;99436.56;4873648;29;45513;-85
2024/01/18 09:34:55;;;;;;;;;67.75;55.50;;;;;4.23;100.00;99442.72;4889172;29;47399;-83
2024/01/18 09:37:22;;;;;;;;;69.50;56.50;;;;;4.29;100.00;99466.50;4853830;29;44905;-84
2024/01/18 09:39:47;;;;;;;;;59.25;48.75;;;;;4.24;100.00;99482.19;4852970;29;45514;-81
2024/01/18 09:42:16;;;;;;;;;63.50;50.50;;;;;4.34;100.00;99483.25;4870832;29;45486;-82
2024/01/18 09:44:46;;;;;;;;;56.75;48.75;;;;;4.46;100.00;99507.16;4855471;29;45480;-82
2024/01/18 09:47:15;;;;;;;;;59.50;50.25;;;;;4.35;100.00;99499.09;4875653;29;44947;-80
2024/01/18 09:49:42;;;;;;;;;65.50;53.75;;;;;4.34;100.00;99499.97;4852357;29;45410;-79
2024/01/18 09:52:08;;;;;;;;;68.75;54.00;;;;;4.36;100.00;99507.84;4880945;29;44945;-81
2024/01/18 09:57:13;;;;;;;;;67.00;56.25;;;;;4.58;100.00;99525.81;5056939;23;45462;-78
2024/01/18 09:59:43;;;;;;;;;71.00;57.25;;;;;4.46;100.00;99525.59;4877407;29;44864;-82
2024/01/18 10:02:09;;;;;;;;;67.50;56.00;;;;;4.46;100.00;99545.78;4884574;28;45424;-82
2024/01/18 10:04:38;;;;;;;;;70.50;56.50;;;;;4.48;100.00;99531.78;4864981;29;47224;-83
2024/01/18 10:13:27;;;;;;;;;62.50;50.75;;;;;4.92;100.00;99588.78;5464355;23;46598;-84
2024/01/18 10:16:00;;;;;;;;;73.00;58.75;;;;;5.19;100.00;99597.19;4900374;28;47629;-83
2024/01/18 10:18:49;;;;;;;;;;;;;;;;;;;;;
2024/01/18 10:21:15;;;;;;;;;70.25;53.50;;;;;5.01;100.00;99616.19;4854457;29;67907;-83
2024/01/18 10:23:54;;;;;;;;;61.50;49.25;;;;;5.18;100.00;99627.03;5073792;23;46066;-84
2024/01/18 10:29:40;;;;;;;;;68.00;55.00;;;;;5.06;100.00;99641.75;5362980;23;46001;31
2024/01/18 10:32:31;;;;;;;;;66.00;53.75;;;;;5.10;100.00;99652.34;4838379;29;44957;-82
2024/01/18 10:34:59;;;;;;;;;57.25;49.25;;;;;5.12;100.00;99657.66;4845148;29;45266;-81
2024/01/18 10:40:04;;;;;;;;;54.50;48.00;;;;;5.19;100.00;99662.16;5116784;23;45494;-83
2024/01/18 10:42:33;;;;;;;;;61.00;50.50;;;;;5.11;100.00;99633.06;4868286;29;45437;-83
2024/01/18 10:45:10;;;;;;;;;61.25;49.00;;;;;5.06;100.00;99632.06;4867187;29;45355;-83
2024/01/18 10:47:37;;;;;;;;;57.25;50.50;;;;;5.16;100.00;99646.31;4842073;29;47182;-82
2024/01/18 10:50:08;;;;;;;;;66.75;52.25;;;;;5.09;100.00;99628.59;4999806;23;45347;-82
2024/01/18 10:52:45;;;;;;;;;65.25;50.75;;;;;5.39;100.00;99676.63;5320380;23;46353;-83
2024/01/18 10:55:49;;;;;;;;;56.50;47.75;;;;;5.16;100.00;99644.56;4880090;29;45529;-84
2024/01/18 10:58:20;;;;;;;;;64.25;50.50;;;;;5.43;100.00;99656.44;4864933;29;47089;-84
2024/01/18 11:01:06;;;;;;;;;66.50;53.00;;;;;5.39;100.00;99675.72;4891649;29;45424;-84
2024/01/18 11:07:05;;;;;;;;;62.50;49.25;;;;;5.56;100.00;99705.03;4823955;29;44978;-84
2024/01/18 11:09:34;;;;;;;;;43.00;41.50;;;;;5.46;100.00;99719.81;4814905;29;47056;-83
2024/01/18 11:12:12;;;;;;;;;62.00;49.00;;;;;5.38;100.00;99684.50;4821427;29;45873;-85
2024/01/18 11:14:49;;;;;;;;;53.25;45.25;;;;;5.64;100.00;99724.53;4828482;29;45642;-83
2024/01/18 11:17:21;;;;;;;;;43.00;41.50;;;;;5.64;100.00;99710.44;4970884;23;44985;-83
2024/01/18 11:19:55;;;;;;;;;63.00;49.25;;;;;5.75;100.00;99706.22;4849268;29;45601;-83
2024/01/18 11:25:01;;;;;;;;;61.50;50.50;;;;;5.64;100.00;99713.09;4845548;29;45409;-83
2024/01/18 11:43:18;;;;;;;;;53.25;45.25;;;;;5.43;100.00;99735.56;4268870;23;45827;-83
2024/01/18 11:45:54;;;;;;;;;56.00;46.00;;;;;5.71;100.00;99754.53;5755501;23;45447;-82
2024/01/18 11:48:20;;;;;;;;;55.75;45.00;;;;;5.66;100.00;99774.69;4889551;28;46943;-80
2024/01/18 11:50:48;;;;;;;;;61.75;51.25;;;;;5.62;100.00;99776.34;5099292;23;45734;-82
2024/01/18 11:53:21;;;;;;;;;64.00;51.75;;;;;5.61;100.00;99757.00;4888658;29;45406;-87
2024/01/18 11:55:52;;;;;;;;;57.50;49.00;;;;;5.64;100.00;99779.91;4872430;29;45487;-80
2024/01/18 11:58:20;;;;;;;;;58.00;49.00;;;;;5.52;100.00;99784.97;4891216;29;45678;-84
2024/01/18 12:00:50;;;;;;;;;65.00;52.00;;;;;5.61;100.00;99795.66;4885846;29;45481;-84
2024/01/18 12:03:15;;;;;;;;;60.75;45.25;;;;;5.44;100.00;99790.09;4888086;29;45123;-85
2024/01/18 12:05:47;;;;;;;;;56.50;47.75;;;;;5.65;100.00;99799.25;4871058;29;45565;-82
2024/01/18 12:10:57;;;;;;;;;58.75;49.00;;;;;5.71;100.00;99820.47;4926835;23;45482;-84
2024/01/18 12:13:22;;;;;;;;;46.75;44.25;;;;;5.46;100.00;99808.59;4896325;29;45766;-81
2024/01/18 12:15:54;;;;;;;;;61.75;50.25;;;;;5.60;100.00;99822.91;4896468;29;44689;-82
2024/01/18 12:19:31;;;;;;;;;;;;;;;;;;;;;
2024/01/18 12:21:57;;;;;;;;;62.00;51.75;;;;;5.61;100.00;99843.16;4814828;29;74927;-84
2024/01/18 12:24:28;;;;;;;;;59.75;49.50;;;;;5.56;100.00;99829.88;4849406;29;45425;-85
2024/01/18 12:26:54;;;;;;;;;54.00;44.00;;;;;5.64;100.00;99855.53;4848979;29;45448;-84
2024/01/18 12:29:23;;;;;;;;;52.00;44.75;;;;;5.27;100.00;99824.03;4847973;29;45504;-84